Time;durP1;ratioP1;P1;durP2;ratioP2;P2;SDS_P1;SDS_P2;PMS_P1;PMS_P2;Temp;Humidity;BMP_temperature;BMP_pressure;BME280_temperature;BME280_humidity;BME280_pressure;Samples;Min_cycle;Max_cycle;Signal;HPM_P1;HPM_P2
2024/02/15 00:00:12;;;;;;;5.38;3.05;;;19.30;58.20;;;;;;4991132;28;20027;-47
2024/02/15 00:02:38;;;;;;;4.55;2.30;;;19.30;58.20;;;;;;4989500;28;20045;-47
2024/02/15 00:05:03;;;;;;;5.57;3.00;;;19.40;58.20;;;;;;4991222;28;20066;-53
2024/02/15 00:07:29;;;;;;;3.97;2.45;;;19.40;58.20;;;;;;4991074;28;20035;-46
2024/02/15 00:09:54;;;;;;;3.03;2.22;;;19.30;58.20;;;;;;4988813;28;20035;-49
2024/02/15 00:12:20;;;;;;;4.97;2.92;;;19.40;58.20;;;;;;4991103;28;20085;-53
2024/02/15 00:14:46;;;;;;;4.47;2.67;;;19.30;58.10;;;;;;4988285;28;20042;-48
2024/02/15 00:17:11;;;;;;;4.13;1.98;;;19.40;58.80;;;;;;4990536;28;20026;-53
2024/02/15 00:19:39;;;;;;;5.78;2.80;;;19.40;58.20;;;;;;4986072;28;20064;-47
2024/02/15 00:22:05;;;;;;;4.03;2.65;;;19.30;58.20;;;;;;4989816;28;20488;-53
2024/02/15 00:24:30;;;;;;;3.22;2.17;;;19.40;58.20;;;;;;4989502;28;20041;-51
2024/02/15 00:26:56;;;;;;;3.00;2.00;;;19.40;58.20;;;;;;4989986;28;20038;-50
2024/02/15 00:29:22;;;;;;;4.38;2.28;;;19.40;58.20;;;;;;4997481;28;20060;-52
2024/02/15 00:31:49;;;;;;;3.10;1.95;;;19.30;58.10;;;;;;4992495;28;20037;-45
2024/02/15 00:34:16;;;;;;;4.57;2.22;;;19.30;58.10;;;;;;4990777;28;20069;-52
2024/02/15 00:36:45;;;;;;;2.92;2.00;;;19.40;58.20;;;;;;4977516;28;20044;-47
2024/02/15 00:39:11;;;;;;;3.38;1.90;;;19.40;58.20;;;;;;4990652;28;20030;-55
2024/02/15 00:41:41;;;;;;;2.50;1.80;;;19.40;58.10;;;;;;4989024;28;20039;-55
2024/02/15 00:44:08;;;;;;;4.45;1.98;;;19.40;58.20;;;;;;4989139;28;21114;-51
2024/02/15 00:46:34;;;;;;;2.83;1.92;;;19.40;58.10;;;;;;4990555;28;20113;-48
2024/02/15 00:48:59;;;;;;;3.22;1.73;;;19.40;58.20;;;;;;4988659;28;20121;-51
2024/02/15 00:51:25;;;;;;;4.60;1.80;;;19.40;58.20;;;;;;4989783;28;20040;-54
2024/02/15 00:53:50;;;;;;;2.88;1.88;;;19.30;58.10;;;;;;4989218;28;24956;-46
2024/02/15 00:56:16;;;;;;;2.20;1.30;;;19.40;58.20;;;;;;4994264;28;20029;-48
2024/02/15 00:58:41;;;;;;;2.83;1.80;;;19.40;58.10;;;;;;4971191;28;20035;-50
2024/02/15 01:01:07;;;;;;;4.13;1.88;;;19.30;58.20;;;;;;4989164;28;20041;-51
2024/02/15 01:03:32;;;;;;;3.05;1.58;;;19.40;58.20;;;;;;4962995;28;20121;-46
2024/02/15 01:05:58;;;;;;;2.95;1.75;;;19.40;58.30;;;;;;4987028;28;20040;-50
2024/02/15 01:08:23;;;;;;;2.85;1.80;;;19.30;58.20;;;;;;4982767;28;20022;-54
2024/02/15 01:10:49;;;;;;;3.72;1.80;;;19.30;58.30;;;;;;4988620;28;20031;-45
2024/02/15 01:13:14;;;;;;;2.95;1.60;;;19.30;58.30;;;;;;4987494;28;20149;-47
2024/02/15 01:15:41;;;;;;;2.60;1.70;;;19.30;58.40;;;;;;4991544;28;20059;-50
2024/02/15 01:18:06;;;;;;;4.35;1.95;;;19.30;58.50;;;;;;4987419;28;20034;-52
2024/02/15 01:20:32;;;;;;;2.97;1.27;;;19.20;58.40;;;;;;4995327;28;20490;-54
2024/02/15 01:22:57;;;;;;;2.22;1.35;;;19.20;58.50;;;;;;4972246;28;20496;-47
2024/02/15 01:25:22;;;;;;;2.60;1.77;;;19.20;58.50;;;;;;4995740;28;20034;-50
2024/02/15 01:27:48;;;;;;;2.33;1.48;;;19.20;58.60;;;;;;4991417;28;20037;-51
2024/02/15 01:30:17;;;;;;;2.85;1.42;;;19.10;58.60;;;;;;4991659;28;20033;-51
2024/02/15 01:35:13;;;;;;;2.40;1.60;;;19.10;58.70;;;;;;5026418;28;20045;-66
2024/02/15 01:37:39;;;;;;;1.83;1.52;;;19.10;58.80;;;;;;5022573;28;20029;-67
2024/02/15 01:40:06;;;;;;;2.72;1.30;;;19.10;58.70;;;;;;5019239;28;20033;-67
2024/02/15 01:42:32;;;;;;;1.98;1.27;;;19.10;58.80;;;;;;5016199;28;20280;-67
2024/02/15 01:44:58;;;;;;;2.53;1.42;;;19.10;58.80;;;;;;4997878;28;20476;-67
2024/02/15 01:47:24;;;;;;;2.88;1.55;;;19.10;58.80;;;;;;5022318;28;20044;-66
2024/02/15 01:49:49;;;;;;;2.78;1.63;;;19.10;58.80;;;;;;5026794;28;20041;-67
2024/02/15 01:52:17;;;;;;;2.03;1.15;;;19.10;58.80;;;;;;5019773;28;20048;-67
2024/02/15 01:54:43;;;;;;;2.60;1.38;;;19.10;58.70;;;;;;5005219;28;20602;-67
2024/02/15 01:57:08;;;;;;;2.05;1.23;;;19.10;58.70;;;;;;5018913;28;20034;-66
2024/02/15 01:59:34;;;;;;;4.25;1.58;;;19.20;58.80;;;;;;5017253;28;20036;-68
2024/02/15 02:02:02;;;;;;;2.00;1.27;;;19.20;58.70;;;;;;5018023;28;20037;-67
2024/02/15 02:04:27;;;;;;;3.38;1.38;;;19.20;58.70;;;;;;5017740;28;20061;-66
2024/02/15 02:06:58;;;;;;;1.85;1.00;;;19.20;58.70;;;;;;5019493;28;20176;-69
2024/02/15 02:09:24;;;;;;;1.65;1.10;;;19.20;58.60;;;;;;5015768;28;20025;-67
2024/02/15 02:11:50;;;;;;;1.52;1.20;;;19.20;58.60;;;;;;5019202;28;20040;-67
2024/02/15 02:14:16;;;;;;;2.10;1.20;;;19.20;58.50;;;;;;5020395;28;20061;-66
2024/02/15 02:16:42;;;;;;;2.53;1.10;;;19.20;58.50;;;;;;5022312;28;20089;-69
2024/02/15 02:19:08;;;;;;;1.80;1.02;;;19.20;58.70;;;;;;5021112;28;20037;-67
2024/02/15 02:21:35;;;;;;;2.00;1.00;;;19.20;58.50;;;;;;5016894;28;20037;-68
2024/02/15 02:24:07;;;;;;;2.35;1.35;;;19.20;58.50;;;;;;5018096;28;20087;-67
2024/02/15 02:26:37;;;;;;;2.90;1.20;;;19.20;58.50;;;;;;5020077;28;20026;-69
2024/02/15 02:29:07;;;;;;;1.77;1.10;;;19.20;58.40;;;;;;5018776;28;20147;-67
2024/02/15 02:31:36;;;;;;;1.65;1.10;;;19.20;58.50;;;;;;5014984;28;20408;-67
2024/02/15 02:34:03;;;;;;;3.20;1.27;;;19.20;58.50;;;;;;5016482;28;20030;-67
2024/02/15 02:36:29;;;;;;;1.38;0.90;;;19.20;58.40;;;;;;5017348;28;20183;-66
2024/02/15 02:39:01;;;;;;;1.95;1.02;;;19.20;58.40;;;;;;5004714;28;20579;-67
2024/02/15 02:41:28;;;;;;;1.50;0.90;;;19.20;58.40;;;;;;5015364;28;20072;-67
2024/02/15 02:44:00;;;;;;;1.75;0.93;;;19.20;58.30;;;;;;5015951;28;20029;-67
2024/02/15 02:46:25;;;;;;;1.30;0.88;;;19.20;58.30;;;;;;5017171;28;20018;-67
2024/02/15 02:48:51;;;;;;;2.03;0.80;;;19.20;58.30;;;;;;5020372;28;20530;-67
2024/02/15 02:51:17;;;;;;;2.13;1.08;;;19.20;58.30;;;;;;5015189;28;20033;-67
2024/02/15 02:53:42;;;;;;;1.92;0.65;;;19.20;58.30;;;;;;5013361;28;20034;-68
2024/02/15 02:56:12;;;;;;;1.90;0.80;;;19.20;58.30;;;;;;5013324;28;20120;-67
2024/02/15 02:58:42;;;;;;;1.33;0.80;;;19.20;58.30;;;;;;5013957;28;20121;-68
2024/02/15 03:01:08;;;;;;;1.35;1.00;;;19.20;58.40;;;;;;5016251;28;20120;-66
2024/02/15 03:03:33;;;;;;;2.45;1.08;;;19.20;58.30;;;;;;5011729;28;20124;-65
2024/02/15 03:05:59;;;;;;;1.95;0.80;;;19.20;58.30;;;;;;4982057;28;20500;-66
2024/02/15 03:08:25;;;;;;;1.05;0.80;;;19.20;58.30;;;;;;5012562;28;20088;-66
2024/02/15 03:10:51;;;;;;;1.45;0.60;;;19.20;58.30;;;;;;4995296;28;20029;-68
2024/02/15 03:13:19;;;;;;;1.17;0.80;;;19.20;58.30;;;;;;5016986;28;20510;-68
2024/02/15 03:15:47;;;;;;;1.48;0.85;;;19.20;58.30;;;;;;5012502;28;20125;-68
2024/02/15 03:18:17;;;;;;;1.58;0.77;;;19.20;58.30;;;;;;5016587;28;20040;-67
2024/02/15 03:20:43;;;;;;;1.08;0.60;;;19.20;58.30;;;;;;5015252;28;20073;-68
2024/02/15 03:23:09;;;;;;;0.98;0.63;;;19.20;58.30;;;;;;4996808;28;20053;-67
2024/02/15 03:25:34;;;;;;;1.55;0.70;;;19.20;58.30;;;;;;5007930;28;20061;-66
2024/02/15 03:28:03;;;;;;;0.95;0.70;;;19.20;58.40;;;;;;5014834;28;20034;-67
2024/02/15 03:30:31;;;;;;;1.00;0.60;;;19.20;58.40;;;;;;5013936;28;20087;-69
2024/02/15 03:32:56;;;;;;;1.00;0.80;;;19.20;58.40;;;;;;4994930;28;20062;-68
2024/02/15 03:35:24;;;;;;;0.95;0.52;;;19.20;58.50;;;;;;5020077;28;20053;-66
2024/02/15 03:37:52;;;;;;;1.00;0.60;;;19.20;58.50;;;;;;5016379;28;20492;-67
2024/02/15 03:40:22;;;;;;;1.90;0.93;;;19.10;58.40;;;;;;5000516;28;20029;-66
2024/02/15 03:42:50;;;;;;;1.52;0.82;;;19.20;58.50;;;;;;5008286;28;20038;-66
2024/02/15 03:45:15;;;;;;;1.48;0.70;;;19.10;58.50;;;;;;5018196;28;20037;-69
2024/02/15 03:47:41;;;;;;;2.10;0.80;;;19.10;58.50;;;;;;5014260;28;20037;-68
2024/02/15 03:50:09;;;;;;;1.35;0.90;;;19.20;58.60;;;;;;5016232;28;20038;-66
2024/02/15 03:52:36;;;;;;;1.15;0.50;;;19.10;58.50;;;;;;5008456;28;20038;-68
2024/02/15 03:55:02;;;;;;;0.80;0.60;;;19.10;58.60;;;;;;5013705;28;20153;-66
2024/02/15 03:57:28;;;;;;;1.75;0.60;;;19.10;58.50;;;;;;5013720;28;20449;-67
2024/02/15 03:59:56;;;;;;;0.70;0.60;;;19.10;58.60;;;;;;5011357;28;20465;-68
2024/02/15 04:02:26;;;;;;;0.80;0.50;;;19.10;58.50;;;;;;5008105;28;20025;-66
2024/02/15 04:04:54;;;;;;;1.52;0.50;;;19.10;58.60;;;;;;5010915;28;20060;-68
2024/02/15 04:07:20;;;;;;;1.35;0.40;;;19.10;58.60;;;;;;5012402;28;20041;-67
2024/02/15 04:09:46;;;;;;;2.45;0.50;;;19.10;58.60;;;;;;5014959;28;20045;-65
2024/02/15 04:12:12;;;;;;;0.57;0.45;;;19.10;58.60;;;;;;5008759;28;20029;-66
2024/02/15 04:14:40;;;;;;;1.25;0.70;;;19.10;58.60;;;;;;5020584;28;20698;-66
2024/02/15 04:17:06;;;;;;;1.70;0.40;;;19.10;58.70;;;;;;5015598;28;20612;-67
2024/02/15 04:19:32;;;;;;;1.38;0.50;;;19.10;58.70;;;;;;5019767;28;20214;-67
2024/02/15 04:21:59;;;;;;;1.33;0.70;;;19.10;58.70;;;;;;5013506;28;20030;-67
2024/02/15 04:24:26;;;;;;;0.93;0.55;;;19.10;58.60;;;;;;5018647;28;20025;-67
2024/02/15 04:26:51;;;;;;;1.05;0.40;;;19.10;58.60;;;;;;5008207;28;20041;-66
2024/02/15 04:29:20;;;;;;;1.20;0.60;;;19.00;58.60;;;;;;5021353;28;20492;-67
2024/02/15 04:31:49;;;;;;;0.88;0.60;;;19.10;58.90;;;;;;5011003;28;20033;-67
2024/02/15 04:34:18;;;;;;;0.82;0.55;;;19.00;58.60;;;;;;5016961;28;20451;-66
2024/02/15 04:36:50;;;;;;;0.63;0.60;;;19.00;58.60;;;;;;5013546;28;20021;-66
2024/02/15 04:39:27;;;;;;;1.02;0.68;;;19.10;58.70;;;;;;4998317;28;20415;-63
2024/02/15 04:41:55;;;;;;;1.27;0.50;;;19.00;58.60;;;;;;5016395;28;20117;-66
2024/02/15 04:44:20;;;;;;;1.15;0.50;;;19.10;58.60;;;;;;5018323;28;20036;-66
2024/02/15 04:46:47;;;;;;;1.50;0.70;;;19.10;58.60;;;;;;5012615;28;20117;-65
2024/02/15 04:49:14;;;;;;;0.52;0.43;;;19.10;58.60;;;;;;5012580;28;20034;-66
2024/02/15 04:51:41;;;;;;;0.65;0.50;;;19.00;58.60;;;;;;5011772;28;20030;-67
2024/02/15 04:54:07;;;;;;;0.45;0.45;;;19.10;58.70;;;;;;5023357;28;20101;-67
2024/02/15 04:56:33;;;;;;;0.75;0.50;;;19.10;58.60;;;;;;5017131;28;20033;-67
2024/02/15 04:58:58;;;;;;;0.95;0.55;;;19.10;58.50;;;;;;4991789;28;20037;-68
2024/02/15 05:01:24;;;;;;;0.90;0.52;;;19.10;58.60;;;;;;5008592;28;20037;-65
2024/02/15 05:03:49;;;;;;;0.90;0.40;;;19.10;58.60;;;;;;5019651;28;20064;-68
2024/02/15 05:06:15;;;;;;;0.63;0.45;;;19.10;58.50;;;;;;5013399;28;20029;-66
2024/02/15 05:08:44;;;;;;;0.60;0.40;;;19.00;58.50;;;;;;5013836;28;20044;-66
2024/02/15 05:11:22;;;;;;;0.65;0.38;;;19.10;58.50;;;;;;5015550;28;20088;-67
2024/02/15 05:13:50;;;;;;;0.50;0.40;;;19.10;58.60;;;;;;5016808;28;20068;-64
2024/02/15 05:16:16;;;;;;;0.30;0.20;;;19.10;58.50;;;;;;5015607;28;20499;-67
2024/02/15 05:18:42;;;;;;;0.95;0.47;;;19.10;58.50;;;;;;5021043;28;20033;-66
2024/02/15 05:21:10;;;;;;;0.50;0.50;;;19.10;58.50;;;;;;5015025;28;20041;-65
2024/02/15 05:23:37;;;;;;;0.63;0.30;;;19.10;58.50;;;;;;5019754;28;20029;-66
2024/02/15 05:26:03;;;;;;;0.73;0.60;;;19.10;58.50;;;;;;5019561;28;20408;-66
2024/02/15 05:28:29;;;;;;;0.98;0.40;;;19.10;58.50;;;;;;5015396;28;20041;-67
2024/02/15 05:31:19;;;;;;;0.68;0.43;;;19.10;58.50;;;;;;5019738;28;20455;-66
2024/02/15 05:33:48;;;;;;;1.02;0.30;;;19.10;58.40;;;;;;5017915;28;20766;-66
2024/02/15 05:36:15;;;;;;;0.47;0.35;;;19.10;58.40;;;;;;5014807;28;20065;-66
2024/02/15 05:38:41;;;;;;;0.77;0.40;;;19.10;58.40;;;;;;5014088;28;20026;-67
2024/02/15 05:41:10;;;;;;;0.40;0.28;;;19.10;58.40;;;;;;5017658;28;20037;-66
2024/02/15 05:43:38;;;;;;;0.50;0.40;;;19.10;58.40;;;;;;5012979;28;20033;-68
2024/02/15 05:46:06;;;;;;;0.40;0.40;;;19.10;58.30;;;;;;5020682;28;20052;-66
2024/02/15 05:48:34;;;;;;;0.60;0.38;;;19.10;58.30;;;;;;5017313;28;20440;-68
2024/02/15 05:51:00;;;;;;;0.73;0.65;;;19.10;58.20;;;;;;5014590;28;20049;-67
2024/02/15 05:53:26;;;;;;;0.47;0.43;;;19.10;58.60;;;;;;5015299;28;20084;-67
2024/02/15 05:55:52;;;;;;;1.20;0.70;;;19.10;58.30;;;;;;5014395;28;20034;-66
2024/02/15 05:58:17;;;;;;;1.55;0.50;;;19.00;58.30;;;;;;5022067;28;20045;-67
2024/02/15 06:00:44;;;;;;;0.98;0.40;;;19.00;58.40;;;;;;5020333;28;20507;-65
2024/02/15 06:03:11;;;;;;;1.40;0.43;;;19.00;58.50;;;;;;5008230;28;20712;-67
2024/02/15 06:05:37;;;;;;;1.48;0.40;;;19.00;58.50;;;;;;5012432;28;20496;-68
2024/02/15 06:08:04;;;;;;;3.25;0.40;;;19.10;58.70;;;;;;5016604;28;20033;-67
2024/02/15 06:10:29;;;;;;;0.88;0.40;;;19.10;58.40;;;;;;5019056;28;20045;-66
2024/02/15 06:12:57;;;;;;;2.38;0.43;;;19.10;58.40;;;;;;5002759;28;20037;-66
2024/02/15 06:15:23;;;;;;;3.17;0.65;;;19.00;58.50;;;;;;5002056;28;20037;-67
2024/02/15 06:17:49;;;;;;;1.98;0.88;;;19.00;58.40;;;;;;5015369;28;20041;-67
2024/02/15 06:20:17;;;;;;;2.30;1.00;;;19.00;59.20;;;;;;5016291;28;20496;-67
2024/02/15 06:22:43;;;;;;;4.03;1.90;;;19.00;58.70;;;;;;5016358;28;20416;-66
2024/02/15 06:25:09;;;;;;;5.53;1.67;;;19.00;58.70;;;;;;5017946;28;20041;-66
2024/02/15 06:27:40;;;;;;;4.50;1.73;;;19.00;58.80;;;;;;5013622;28;20033;-67
2024/02/15 06:41:07;;;;;;;3.67;1.92;;;18.90;58.80;;;;;;5013332;28;20498;-66
2024/02/15 06:43:34;;;;;;;4.13;1.88;;;18.90;58.80;;;;;;5022325;28;20504;-65
2024/02/15 06:46:01;;;;;;;6.72;1.83;;;18.90;58.80;;;;;;5024384;28;20022;-66
2024/02/15 06:48:27;;;;;;;3.67;2.03;;;18.90;58.80;;;;;;5018355;28;20487;-67
2024/02/15 06:50:52;;;;;;;5.15;1.75;;;18.90;58.80;;;;;;5003437;28;20041;-68
2024/02/15 06:53:20;;;;;;;5.40;2.00;;;18.90;58.80;;;;;;5012889;28;20038;-67
2024/02/15 06:55:48;;;;;;;4.05;1.63;;;18.90;58.80;;;;;;5010261;28;20045;-67
2024/02/15 06:58:15;;;;;;;3.08;2.10;;;18.90;58.70;;;;;;4997875;28;20633;-67
2024/02/15 07:00:42;;;;;;;4.88;1.80;;;18.90;58.60;;;;;;5017925;28;20404;-67
2024/02/15 07:03:08;;;;;;;4.35;2.05;;;19.00;58.60;;;;;;5014485;28;20052;-67
2024/02/15 07:05:33;;;;;;;5.43;1.83;;;19.00;58.60;;;;;;5021865;28;20045;-67
2024/02/15 07:07:59;;;;;;;4.10;2.10;;;19.00;58.50;;;;;;5020804;28;20037;-67
2024/02/15 07:10:24;;;;;;;4.22;1.92;;;19.00;58.50;;;;;;5021709;28;20048;-68
2024/02/15 07:12:50;;;;;;;6.43;2.38;;;19.00;58.50;;;;;;5021677;28;20112;-68
2024/02/15 07:15:17;;;;;;;2.92;1.92;;;19.00;58.40;;;;;;4999361;28;20060;-68
2024/02/15 07:17:42;;;;;;;4.18;1.77;;;19.00;58.40;;;;;;5017459;28;20037;-67
2024/02/15 07:20:11;;;;;;;4.18;1.77;;;19.00;58.40;;;;;;5021598;28;20029;-67
2024/02/15 07:22:38;;;;;;;3.97;1.80;;;19.00;58.40;;;;;;5018850;28;20030;-67
2024/02/15 07:25:04;;;;;;;3.58;1.85;;;19.00;58.40;;;;;;5021959;28;20033;-68
2024/02/15 07:27:30;;;;;;;2.90;1.50;;;18.90;58.50;;;;;;5023748;28;20025;-68
2024/02/15 07:29:55;;;;;;;5.78;1.83;;;19.00;58.60;;;;;;5021030;28;20099;-67
2024/02/15 07:32:21;;;;;;;4.70;1.42;;;18.90;58.60;;;;;;5018537;28;20029;-69
2024/02/15 07:34:47;;;;;;;3.42;1.63;;;18.90;58.70;;;;;;5017059;28;20045;-66
2024/02/15 07:37:15;;;;;;;3.97;1.88;;;18.90;58.80;;;;;;5015785;28;20148;-67
2024/02/15 07:39:41;;;;;;;3.65;2.25;;;18.90;58.80;;;;;;5012893;28;20041;-66
2024/02/15 07:42:08;;;;;;;4.28;2.45;;;18.90;59.10;;;;;;5015175;28;20033;-66
2024/02/15 07:44:36;;;;;;;5.35;2.65;;;18.80;59.20;;;;;;5013062;28;20192;-66
2024/02/15 07:47:02;;;;;;;5.55;3.33;;;18.90;59.30;;;;;;5014713;28;20030;-68
2024/02/15 07:49:28;;;;;;;8.20;4.40;;;18.90;59.80;;;;;;5016536;28;20111;-69
2024/02/15 07:51:53;;;;;;;9.52;4.32;;;18.90;59.90;;;;;;4999894;28;20241;-68
2024/02/15 07:54:22;;;;;;;6.88;4.47;;;18.80;59.90;;;;;;5018935;28;20026;-67
2024/02/15 07:56:48;;;;;;;9.43;4.72;;;18.90;60.10;;;;;;5017627;28;20128;-67
2024/02/15 07:59:18;;;;;;;7.88;4.50;;;18.90;60.30;;;;;;5019988;28;20026;-67
2024/02/15 08:01:47;;;;;;;11.50;5.00;;;18.90;60.30;;;;;;5016676;28;20111;-69
2024/02/15 08:04:12;;;;;;;7.30;4.32;;;18.90;60.40;;;;;;4999918;28;20053;-66
2024/02/15 08:06:38;;;;;;;9.45;4.80;;;18.90;60.40;;;;;;5016018;28;20401;-69
2024/02/15 08:09:06;;;;;;;6.50;4.10;;;18.90;60.10;;;;;;5007873;28;20030;-64
2024/02/15 08:11:32;;;;;;;8.45;5.10;;;19.00;60.10;;;;;;5012579;28;20094;-67
2024/02/15 08:13:59;;;;;;;9.85;4.60;;;19.00;60.10;;;;;;5015623;28;20298;-67
2024/02/15 08:16:28;;;;;;;9.10;4.30;;;19.10;59.90;;;;;;5014590;28;20061;-69
2024/02/15 08:18:57;;;;;;;4.88;3.47;;;19.10;60.00;;;;;;5013907;28;20049;-67
2024/02/15 08:21:29;;;;;;;9.13;4.93;;;19.10;59.90;;;;;;5016797;28;20064;-67
2024/02/15 08:23:55;;;;;;;8.50;3.78;;;19.10;59.70;;;;;;5014394;28;20030;-68
2024/02/15 08:26:21;;;;;;;10.52;4.28;;;19.20;59.70;;;;;;5017139;28;20515;-66
2024/02/15 08:28:47;;;;;;;7.40;4.03;;;19.30;59.70;;;;;;5014085;28;20056;-66
2024/02/15 08:31:15;;;;;;;6.95;3.83;;;19.30;59.60;;;;;;5014187;28;21415;-66
2024/02/15 08:33:44;;;;;;;7.40;3.42;;;19.30;59.30;;;;;;5010445;28;20045;-66
2024/02/15 08:36:10;;;;;;;5.68;3.38;;;19.30;59.40;;;;;;5012494;28;20037;-68
2024/02/15 08:38:37;;;;;;;7.55;3.50;;;19.30;59.30;;;;;;5017103;28;20563;-67
2024/02/15 08:41:04;;;;;;;5.63;3.13;;;19.40;59.20;;;;;;5010199;28;20038;-66
2024/02/15 08:43:32;;;;;;;6.05;3.22;;;19.40;59.10;;;;;;5013378;28;20040;-69
2024/02/15 08:45:58;;;;;;;6.55;3.13;;;19.40;59.00;;;;;;5013650;28;20054;-67
2024/02/15 08:48:24;;;;;;;6.28;3.17;;;19.40;58.90;;;;;;5010716;28;20076;-68
2024/02/15 08:50:50;;;;;;;4.82;3.40;;;19.40;58.80;;;;;;5007456;28;20168;-65
2024/02/15 08:53:16;;;;;;;5.60;3.17;;;19.40;58.80;;;;;;5011737;28;20516;-67
2024/02/15 08:55:41;;;;;;;8.60;3.03;;;19.50;58.80;;;;;;5012751;28;20125;-67
2024/02/15 08:58:09;;;;;;;6.10;3.28;;;19.50;58.90;;;;;;5010932;28;20148;-67
2024/02/15 09:00:35;;;;;;;6.47;2.85;;;19.50;58.90;;;;;;5012750;28;20152;-68
2024/02/15 09:03:01;;;;;;;6.72;2.83;;;19.50;58.80;;;;;;5003265;28;20045;-66
2024/02/15 09:05:26;;;;;;;3.67;2.70;;;19.60;58.80;;;;;;4979398;28;20038;-68
2024/02/15 09:07:52;;;;;;;3.70;2.25;;;19.50;58.70;;;;;;5015468;28;20512;-69
2024/02/15 09:10:17;;;;;;;5.25;2.53;;;19.50;58.70;;;;;;5018585;28;20033;-66
2024/02/15 09:12:47;;;;;;;3.75;2.70;;;19.60;58.80;;;;;;5016161;28;20563;-66
2024/02/15 09:15:12;;;;;;;5.90;2.42;;;19.60;58.80;;;;;;5017082;28;20049;-65
2024/02/15 09:17:41;;;;;;;4.10;2.63;;;19.60;58.60;;;;;;5013500;28;20064;-66
2024/02/15 09:20:08;;;;;;;5.20;2.35;;;19.60;58.60;;;;;;5013153;28;20140;-67
2024/02/15 09:22:35;;;;;;;7.93;2.70;;;19.60;58.60;;;;;;5017486;28;20034;-67
2024/02/15 09:25:04;;;;;;;3.28;2.17;;;19.50;58.50;;;;;;5021257;28;20041;-66
2024/02/15 09:27:29;;;;;;;5.95;2.08;;;19.50;58.60;;;;;;5019387;28;20039;-67
2024/02/15 09:29:55;;;;;;;4.90;2.35;;;19.50;58.50;;;;;;5019347;28;20104;-64
2024/02/15 09:32:22;;;;;;;4.55;2.53;;;19.50;58.50;;;;;;5013277;28;20125;-68
2024/02/15 09:34:48;;;;;;;6.13;2.38;;;19.50;58.50;;;;;;5015922;28;20125;-68
2024/02/15 09:37:14;;;;;;;3.20;2.33;;;19.60;58.60;;;;;;4996559;28;20141;-67
2024/02/15 09:39:39;;;;;;;4.30;2.63;;;19.50;58.60;;;;;;5006777;28;20670;-66
2024/02/15 09:42:05;;;;;;;3.17;1.95;;;19.50;58.60;;;;;;5021212;28;20029;-66
2024/02/15 09:44:30;;;;;;;5.65;2.38;;;19.50;58.60;;;;;;5022824;28;20021;-68
2024/02/15 09:47:05;;;;;;;3.63;2.17;;;19.50;58.60;;;;;;5025048;28;20021;-63
2024/02/15 09:49:35;;;;;;;5.90;2.25;;;19.50;58.60;;;;;;5021376;28;20021;-66
2024/02/15 09:52:03;;;;;;;5.13;2.45;;;19.50;59.20;;;;;;5022987;28;20030;-66
2024/02/15 09:54:29;;;;;;;4.00;2.45;;;19.50;58.60;;;;;;5025410;28;20060;-66
2024/02/15 09:56:59;;;;;;;4.03;2.05;;;19.50;58.50;;;;;;5024526;28;20797;-66
2024/02/15 09:59:26;;;;;;;2.80;1.70;;;19.50;58.60;;;;;;5026077;28;20079;-66
2024/02/15 10:01:58;;;;;;;4.82;2.55;;;19.50;59.30;;;;;;5020083;28;20060;-66
2024/02/15 10:04:25;;;;;;;3.05;2.00;;;19.50;58.60;;;;;;5020146;28;20025;-68
2024/02/15 10:06:51;;;;;;;5.18;2.30;;;19.50;58.70;;;;;;5015722;28;20113;-66
2024/02/15 10:09:29;;;;;;;3.88;1.88;;;19.50;58.70;;;;;;5021770;28;20116;-66
2024/02/15 10:11:59;;;;;;;2.65;1.60;;;19.50;59.60;;;;;;5019662;28;20061;-65
2024/02/15 10:14:26;;;;;;;3.42;2.10;;;19.40;58.80;;;;;;5018954;28;20539;-65
2024/02/15 10:16:55;;;;;;;2.97;2.05;;;19.40;59.00;;;;;;5019287;28;20036;-67
2024/02/15 10:19:25;;;;;;;3.58;2.13;;;19.40;59.10;;;;;;5019896;28;20030;-66
2024/02/15 10:21:57;;;;;;;3.00;1.75;;;19.40;59.10;;;;;;5016543;28;20033;-66
2024/02/15 10:24:27;;;;;;;1.90;1.65;;;19.40;59.10;;;;;;5022539;28;20048;-66
2024/02/15 10:27:03;;;;;;;5.47;1.83;;;19.40;59.20;;;;;;5016943;28;20393;-60
2024/02/15 10:29:29;;;;;;;3.55;1.80;;;19.40;59.20;;;;;;5021280;28;20048;-59
2024/02/15 10:32:00;;;;;;;3.03;1.85;;;19.30;59.30;;;;;;5017613;28;20507;-64
2024/02/15 10:34:30;;;;;;;3.45;1.73;;;19.30;59.30;;;;;;4989459;28;20037;-65
2024/02/15 10:37:11;;;;;;;4.68;2.40;;;19.30;59.30;;;;;;5019574;28;20030;-65
2024/02/15 10:39:36;;;;;;;3.40;1.90;;;19.20;59.30;;;;;;5026386;28;20056;-66
2024/02/15 10:42:05;;;;;;;3.95;1.88;;;19.20;59.30;;;;;;5023734;28;20052;-66
2024/02/15 10:44:33;;;;;;;3.58;1.63;;;19.20;59.30;;;;;;5024244;28;20041;-66
2024/02/15 10:47:00;;;;;;;2.53;1.60;;;19.20;59.30;;;;;;5021890;28;20026;-66
2024/02/15 10:49:27;;;;;;;3.58;2.10;;;19.20;59.30;;;;;;4994327;28;20527;-66
2024/02/15 10:51:58;;;;;;;3.45;1.77;;;19.30;59.30;;;;;;5019331;28;20030;-63
2024/02/15 10:55:08;;;;;;;2.83;1.98;;;19.20;59.30;;;;;;5016809;28;20048;-64
2024/02/15 10:57:39;;;;;;;3.28;2.33;;;19.30;59.30;;;;;;5000155;28;20034;-63
2024/02/15 11:00:10;;;;;;;5.38;1.55;;;19.30;59.20;;;;;;5019490;28;20154;-64
2024/02/15 11:02:54;;;;;;;3.08;1.52;;;19.30;59.30;;;;;;5024015;28;20100;-64
2024/02/15 11:05:23;;;;;;;3.42;1.80;;;19.30;59.30;;;;;;5020171;28;20030;-63
2024/02/15 11:07:49;;;;;;;3.35;1.55;;;19.30;59.30;;;;;;5019338;28;20119;-66
2024/02/15 11:10:16;;;;;;;3.78;1.58;;;19.30;59.30;;;;;;5014838;28;20087;-67
2024/02/15 11:12:43;;;;;;;2.30;1.73;;;19.30;59.30;;;;;;5015775;28;20041;-66
2024/02/15 11:15:09;;;;;;;6.35;1.75;;;19.30;59.30;;;;;;5020177;28;20040;-66
2024/02/15 11:17:39;;;;;;;5.18;2.17;;;19.30;59.30;;;;;;5022611;28;20045;-66
2024/02/15 11:20:09;;;;;;;3.15;1.67;;;19.30;59.40;;;;;;5015854;28;20036;-65
2024/02/15 11:22:38;;;;;;;2.70;1.40;;;19.30;59.30;;;;;;5020980;28;20041;-65
2024/02/15 11:25:08;;;;;;;5.78;2.05;;;19.40;59.30;;;;;;5019637;28;20647;-65
2024/02/15 11:27:37;;;;;;;2.42;1.48;;;19.30;59.30;;;;;;5018886;28;20026;-66
2024/02/15 11:30:15;;;;;;;2.95;1.48;;;19.30;59.30;;;;;;5017500;28;20037;-65
2024/02/15 11:32:51;;;;;;;2.03;1.60;;;19.40;59.30;;;;;;5015894;28;20137;-66
2024/02/15 11:35:25;;;;;;;3.45;1.90;;;19.30;59.30;;;;;;5017561;28;20029;-65
2024/02/15 11:37:53;;;;;;;3.95;1.60;;;19.40;59.30;;;;;;5016831;28;20396;-66
2024/02/15 11:40:23;;;;;;;3.92;1.45;;;19.40;59.30;;;;;;5020356;28;20053;-64
2024/02/15 11:43:02;;;;;;;3.47;1.38;;;19.30;59.10;;;;;;5015829;28;20046;-58
2024/02/15 11:45:34;;;;;;;6.32;1.50;;;19.40;59.20;;;;;;5018170;28;20052;-66
2024/02/15 11:48:00;;;;;;;3.75;1.73;;;19.40;59.10;;;;;;5021177;28;20030;-65
2024/02/15 11:50:27;;;;;;;4.63;1.38;;;19.40;59.20;;;;;;5018583;28;20030;-67
2024/02/15 11:53:05;;;;;;;2.65;1.10;;;19.40;59.10;;;;;;5012406;28;20053;-65
2024/02/15 11:55:32;;;;;;;3.03;1.45;;;19.40;59.10;;;;;;5021645;28;20396;-66
2024/02/15 11:58:04;;;;;;;2.70;1.25;;;19.40;59.00;;;;;;5022199;28;20393;-66
2024/02/15 12:19:56;;;;;;;2.83;1.40;;;19.50;58.90;;;;;;5021557;28;20036;-66
2024/02/15 12:22:27;;;;;;;1.77;1.08;;;19.40;58.90;;;;;;5021012;28;20061;-65
2024/02/15 12:24:54;;;;;;;3.22;0.90;;;19.50;58.90;;;;;;5022379;28;20025;-66
2024/02/15 12:27:20;;;;;;;2.80;1.40;;;19.50;58.90;;;;;;5024980;28;20038;-65
2024/02/15 12:29:52;;;;;;;3.30;1.40;;;19.50;58.90;;;;;;5022012;28;20506;-65
2024/02/15 12:32:22;;;;;;;1.27;1.00;;;19.50;58.90;;;;;;5016135;28;20094;-66
2024/02/15 12:34:48;;;;;;;1.55;1.05;;;19.50;58.90;;;;;;5002166;28;20038;-66
2024/02/15 12:37:13;;;;;;;2.88;1.00;;;19.50;58.80;;;;;;5022878;28;20504;-67
2024/02/15 12:39:40;;;;;;;2.28;1.13;;;19.50;58.90;;;;;;5014772;28;20034;-65
2024/02/15 12:42:07;;;;;;;1.73;1.15;;;19.50;58.90;;;;;;5019069;28;20099;-66
2024/02/15 12:44:33;;;;;;;2.17;1.10;;;19.50;58.90;;;;;;5026362;28;20021;-65
2024/02/15 12:47:00;;;;;;;1.85;1.10;;;19.50;58.90;;;;;;5019065;28;20056;-67
2024/02/15 12:49:25;;;;;;;2.17;1.15;;;19.50;58.90;;;;;;5015823;28;20121;-68
2024/02/15 12:51:53;;;;;;;1.77;1.15;;;19.50;58.90;;;;;;5016064;28;20171;-66
2024/02/15 12:54:23;;;;;;;2.63;0.80;;;19.50;58.90;;;;;;5022696;28;20032;-64
2024/02/15 12:56:52;;;;;;;2.70;1.02;;;19.50;58.90;;;;;;5015443;28;20463;-65
2024/02/15 12:59:19;;;;;;;2.25;0.90;;;19.50;58.90;;;;;;5022877;28;20029;-66
2024/02/15 13:01:46;;;;;;;3.60;1.40;;;19.50;58.90;;;;;;5003213;28;20577;-66
2024/02/15 13:04:28;;;;;;;1.63;0.90;;;19.50;58.90;;;;;;5009952;28;20082;-66
2024/02/15 13:06:53;;;;;;;2.60;1.50;;;19.50;58.80;;;;;;5019291;28;20554;-64
2024/02/15 13:09:19;;;;;;;2.22;1.00;;;19.50;58.90;;;;;;5000251;28;20021;-65
2024/02/15 13:11:46;;;;;;;2.00;1.17;;;19.60;58.90;;;;;;4998393;28;20029;-66
2024/02/15 13:14:13;;;;;;;6.07;1.25;;;19.60;58.80;;;;;;5021687;28;20053;-69
2024/02/15 13:16:38;;;;;;;2.10;1.10;;;19.60;58.80;;;;;;5019990;28;20040;-66
2024/02/15 13:19:06;;;;;;;1.80;1.00;;;19.50;58.80;;;;;;5023867;28;20026;-65
2024/02/15 13:21:34;;;;;;;2.15;0.98;;;19.60;58.80;;;;;;5020676;28;20440;-68